Vera, Texas
Current Conditions -  °F | °C
As of 11:56 AM on Saturday 25 Oct 2014 (Local Time) from KF05 Reporting Station
Clear Clear  
Wind Chill: 29°   Ceiling: Unl
Heat Index: 29°   Visibility: 10mi
Dew Point: 11°   Wind: 5mph
Humidity: 33%   Direction: 240°WSW
Pressure: 30.13"   Gusts: NA
Location:  33.6337°N, 99.8039°W
Report Text: KF05 251656Z AUTO 24004KT 10SM CLR 29/11 A3013 RMK AO2
Loading
Personal Weather Stations






























Interactive Weather Map
Tropical Storm Tracking
New forecast layout! Learn more

10-Day Weather Forecast

Advertisements
Track Severe Weather on mobile